地図

経路データ

SID SEASON NUMBER BASIN SUBBASIN NAME ISO_TIME NATURE LAT LON WMO_WIND WMO_PRES WMO_AGENCY TRACK_TYPE DIST2LAND LANDFALL IFLAG USA_AGENCY USA_ATCF_ID USA_LAT USA_LON USA_RECORD USA_STATUS USA_WIND USA_PRES USA_SSHS USA_R34_NE USA_R34_SE USA_R34_SW USA_R34_NW USA_R50_NE USA_R50_SE USA_R50_SW USA_R50_NW USA_R64_NE USA_R64_SE USA_R64_SW USA_R64_NW USA_POCI USA_ROCI USA_RMW USA_EYE TOKYO_LAT TOKYO_LON TOKYO_GRADE TOKYO_WIND TOKYO_PRES TOKYO_R50_DIR TOKYO_R50_LONG TOKYO_R50_SHORT TOKYO_R30_DIR TOKYO_R30_LONG TOKYO_R30_SHORT TOKYO_LAND CMA_LAT CMA_LON CMA_CAT CMA_WIND CMA_PRES HKO_LAT HKO_LON HKO_CAT HKO_WIND HKO_PRES NEWDELHI_LAT NEWDELHI_LON NEWDELHI_GRADE NEWDELHI_WIND NEWDELHI_PRES NEWDELHI_CI NEWDELHI_DP NEWDELHI_POCI REUNION_LAT REUNION_LON REUNION_TYPE REUNION_WIND REUNION_PRES REUNION_TNUM REUNION_CI REUNION_RMW REUNION_R34_NE REUNION_R34_SE REUNION_R34_SW REUNION_R34_NW REUNION_R50_NE REUNION_R50_SE REUNION_R50_SW REUNION_R50_NW REUNION_R64_NE REUNION_R64_SE REUNION_R64_SW REUNION_R64_NW BOM_LAT BOM_LON BOM_TYPE BOM_WIND BOM_PRES BOM_TNUM BOM_CI BOM_RMW BOM_R34_NE BOM_R34_SE BOM_R34_SW BOM_R34_NW BOM_R50_NE BOM_R50_SE BOM_R50_SW BOM_R50_NW BOM_R64_NE BOM_R64_SE BOM_R64_SW BOM_R64_NW BOM_ROCI BOM_POCI BOM_EYE BOM_POS_METHOD BOM_PRES_METHOD NADI_LAT NADI_LON NADI_CAT NADI_WIND NADI_PRES WELLINGTON_LAT WELLINGTON_LON WELLINGTON_WIND WELLINGTON_PRES DS824_LAT DS824_LON DS824_STAGE DS824_WIND DS824_PRES TD9636_LAT TD9636_LON TD9636_STAGE TD9636_WIND TD9636_PRES TD9635_LAT TD9635_LON TD9635_WIND TD9635_PRES TD9635_ROCI NEUMANN_LAT NEUMANN_LON NEUMANN_CLASS NEUMANN_WIND NEUMANN_PRES MLC_LAT MLC_LON MLC_CLASS MLC_WIND MLC_PRES USA_GUST BOM_GUST BOM_GUST_PER REUNION_GUST REUNION_GUST_PER USA_SEAHGT USA_SEARAD_NE USA_SEARAD_SE USA_SEARAD_SW USA_SEARAD_NW STORM_SPEED STORM_DIR
1933233N25084 1933 42 NI BB NOT_NAMED 1933-08-21 00:00:00 TS 24.7000 84.4000 main 0 0 _________O____ -1 24.7000 84.4000 TC 30 3 268
1933233N25084 1933 42 NI BB NOT_NAMED 1933-08-21 03:00:00 TS 24.6951 84.2233 main 0 0 _________PO___ -1 24.6926 84.1350 TC 30 24.7000 84.4000 1 3 271
1933233N25084 1933 42 NI BB NOT_NAMED 1933-08-21 06:00:00 TS 24.7032 84.0155 main 0 0 _________OP___ -1 24.7000 83.9000 TC 30 24.7079 84.1889 1 4 275
1933233N25084 1933 42 NI BB NOT_NAMED 1933-08-21 09:00:00 TS 24.7296 83.8209 main 0 0 _________PP___ -1 24.7349 83.7075 TC 30 24.7225 83.9722 1 4 281
1933233N25084 1933 42 NI BB NOT_NAMED 1933-08-21 12:00:00 TS 24.7754 83.6222 main 0 0 _________OP___ -1 24.8000 83.5000 TC 30 24.7509 83.7445 1 4 286
1933233N25084 1933 42 NI BB NOT_NAMED 1933-08-21 15:00:00 TS 24.8501 83.3463 main 0 0 _________PO___ -1 24.9001 83.1926 TC 30 24.8000 83.5000 1 5 288
1933233N25084 1933 42 NI BB NOT_NAMED 1933-08-21 18:00:00 TS 24.9365 83.0694 main 0 0 _________OP___ -1 25.0000 82.9000 TC 30 24.8730 83.2387 1 5 289
1933233N25084 1933 42 NI BB NOT_NAMED 1933-08-21 21:00:00 TS 25.0113 82.8439 main 0 0 _________PP___ -1 25.0649 82.7049 TC 30 24.9578 82.9829 1 4 291
1933233N25084 1933 42 NI BB NOT_NAMED 1933-08-22 00:00:00 TS 25.0693 82.6803 main 0 0 _________OP___ -1 25.1000 82.6000 TC 30 25.0386 82.7606 1 2 292
1933233N25084 1933 42 NI BB NOT_NAMED 1933-08-22 03:00:00 TS 25.1037 82.5887 main 0 0 _________PO___ -1 25.1075 82.5775 TC 30 25.1000 82.6000 1 1 292
1933233N25084 1933 42 NI BB NOT_NAMED 1933-08-22 06:00:00 TS 25.1107 82.5676 main 0 0 _________OP___ -1 25.1000 82.6000 TC 30 25.1214 82.5351 1 0 0
1933233N25084 1933 42 NI BB NOT_NAMED 1933-08-22 09:00:00 TS 25.1111 82.5662 main 0 0 _________PP___ -1 25.1000 82.6000 TC 30 25.1223 82.5323 1 0 0
1933233N25084 1933 42 NI BB NOT_NAMED 1933-08-22 12:00:00 TS 25.1060 82.5817 main 0 0 _________OP___ -1 25.1000 82.6000 TC 30 25.1121 82.5633 1 0 106
1933233N25084 1933 42 NI BB NOT_NAMED 1933-08-22 15:00:00 TS 25.1000 82.6000 main 0 0 _________PO___ -1 25.1000 82.6000 TC 30 25.1000 82.6000 1 0 0
1933233N25084 1933 42 NI BB NOT_NAMED 1933-08-22 18:00:00 TS 25.0939 82.6101 main 0 0 _________OP___ -1 25.1000 82.6000 TC 30 25.0878 82.6203 1 0 0
1933233N25084 1933 42 NI BB NOT_NAMED 1933-08-22 21:00:00 TS 25.0850 82.6262 main 0 0 _________PP___ -1 25.0925 82.6150 TC 30 25.0774 82.6374 1 0 0
1933233N25084 1933 42 NI BB NOT_NAMED 1933-08-23 00:00:00 TS 25.0892 82.6179 main 0 0 _________OP___ -1 25.1000 82.6000 TC 30 25.0784 82.6358 1 1 298
1933233N25084 1933 42 NI BB NOT_NAMED 1933-08-23 03:00:00 TS 25.1175 82.5612 main 0 0 _________PO___ -1 25.1350 82.5225 TC 30 25.1000 82.6000 1 2 302
1933233N25084 1933 42 NI BB NOT_NAMED 1933-08-23 06:00:00 TS 25.1808 82.4555 main 0 0 _________OP___ -1 25.2000 82.4000 TC 30 25.1616 82.5111 1 3 305
1933233N25084 1933 42 NI BB NOT_NAMED 1933-08-23 09:00:00 TS 25.2713 82.3189 main 0 0 _________PP___ -1 25.3000 82.2501 TC 30 25.2426 82.3877 1 3 306
1933233N25084 1933 42 NI BB NOT_NAMED 1933-08-23 12:00:00 TS 25.3636 82.1727 main 0 0 _________OP___ -1 25.4000 82.1000 TC 30 25.3272 82.2455 1 3 303
1933233N25084 1933 42 NI BB NOT_NAMED 1933-08-23 15:00:00 TS 25.4325 82.0500 main 0 0 _________PO___ -1 25.4650 82.0000 TC 30 25.4000 82.1000 1 2 296
1933233N25084 1933 42 NI BB NOT_NAMED 1933-08-23 18:00:00 TS 25.4677 81.9354 main 0 0 _________OP___ -1 25.5000 81.9000 TC 30 25.4353 81.9708 1 2 281
1933233N25084 1933 42 NI BB NOT_NAMED 1933-08-23 21:00:00 TS 25.4788 81.7962 main 0 0 _________PP___ -1 25.5000 81.7500 TC 30 25.4575 81.8424 1 3 275
1933233N25084 1933 42 NI BB NOT_NAMED 1933-08-24 00:00:00 TS 25.4880 81.6589 main 0 0 _________OP___ -1 25.5000 81.6000 TC 30 25.4759 81.7177 1 2 281
1933233N25084 1933 42 NI BB NOT_NAMED 1933-08-24 03:00:00 TS 25.5212 81.5462 main 0 0 _________PO___ -1 25.5425 81.4925 TC 30 25.5000 81.6000 1 2 293
1933233N25084 1933 42 NI BB NOT_NAMED 1933-08-24 06:00:00 TS 25.5693 81.4484 main 0 0 _________OP___ -1 25.6000 81.4000 TC 30 25.5387 81.4968 1 2 299
1933233N25084 1933 42 NI BB NOT_NAMED 1933-08-24 09:00:00 TS 25.6174 81.3537 main 0 0 _________PP___ -1 25.6500 81.3075 TC 30 25.5849 81.3999 1 2 300
1933233N25084 1933 42 NI BB NOT_NAMED 1933-08-24 12:00:00 TS 25.6693 81.2515 main 0 0 _________OP___ -1 25.7000 81.2000 TC 30 25.6387 81.3031 1 2 297
1933233N25084 1933 42 NI BB NOT_NAMED 1933-08-24 15:00:00 TS 25.7213 81.1250 main 0 0 _________PO___ -1 25.7425 81.0500 TC 30 25.7000 81.2000 1 2 296
1933233N25084 1933 42 NI BB NOT_NAMED 1933-08-24 18:00:00 TS 25.7777 81.0072 main 0 0 _________OP___ -1 25.8000 80.9000 TC 30 25.7553 81.1144 1 2 305
1933233N25084 1933 42 NI BB NOT_NAMED 1933-08-24 21:00:00 TS 25.8522 80.9197 main 0 0 _________PP___ -1 25.8849 80.8224 TC 30 25.8195 81.0169 1 3 311
1933233N25084 1933 42 NI BB NOT_NAMED 1933-08-25 00:00:00 TS 25.9495 80.7930 main 0 0 _________OP___ -1 26.0000 80.7000 TC 30 25.8990 80.8861 1 4 305
1933233N25084 1933 42 NI BB NOT_NAMED 1933-08-25 03:00:00 TS 26.0713 80.5688 main 0 0 _________PO___ -1 26.1425 80.4375 TC 30 26.0000 80.7000 1 5 299
1933233N25084 1933 42 NI BB NOT_NAMED 1933-08-25 06:00:00 TS 26.2103 80.2683 main 0 0 _________OP___ -1 26.3000 80.1000 TC 30 26.1205 80.4366 1 6 296
1933233N25084 1933 42 NI BB NOT_NAMED 1933-08-25 09:00:00 TS 26.3526 79.9374 main 0 0 _________PP___ -1 26.4425 79.7574 TC 30 26.2627 80.1175 1 7 296
1933233N25084 1933 42 NI BB NOT_NAMED 1933-08-25 12:00:00 TS 26.5118 79.5823 main 0 0 _________OP___ -1 26.6000 79.4000 TC 30 26.4236 79.7646 1 7 298
1933233N25084 1933 42 NI BB NOT_NAMED 1933-08-25 15:00:00 TS 26.6962 79.2250 main 0 0 _________PO___ -1 26.7924 79.0499 TC 30 26.6000 79.4000 1 7 301
1933233N25084 1933 42 NI BB NOT_NAMED 1933-08-25 18:00:00 TS 26.8969 78.8706 main 0 0 _________OP___ -1 27.0000 78.7000 TC 30 26.7938 79.0412 1 8 302
1933233N25084 1933 42 NI BB NOT_NAMED 1933-08-25 21:00:00 TS 27.1038 78.5065 main 0 0 _________PP___ -1 27.2075 78.3350 TC 30 27.0002 78.6779 1 8 303
1933233N25084 1933 42 NI BB NOT_NAMED 1933-08-26 00:00:00 TS 27.3032 78.1628 main 0 0 _________OP___ -1 27.4000 78.0000 TC 30 27.2064 78.3256 1 7 303
1933233N25084 1933 42 NI AS NOT_NAMED 1933-08-26 03:00:00 TS 27.4787 77.8674 main 0 0 _________PO___ -1 27.5574 77.7348 TC 30 27.4000 78.0000 1 6 304
1933233N25084 1933 42 NI AS NOT_NAMED 1933-08-26 06:00:00 TS 27.6299 77.6123 main 0 0 _________OP___ -1 27.7000 77.5000 TC 30 27.5598 77.7246 1 5 304
1933233N25084 1933 42 NI AS NOT_NAMED 1933-08-26 09:00:00 TS 27.7784 77.3670 main 0 0 _________PP___ -1 27.8499 77.2574 TC 30 27.7069 77.4766 1 5 304
1933233N25084 1933 42 NI AS NOT_NAMED 1933-08-26 12:00:00 TS 27.9253 77.1201 main 0 0 _________OP___ -1 28.0000 77.0000 TC 30 27.8505 77.2403 1 5 303
1933233N25084 1933 42 NI AS NOT_NAMED 1933-08-26 15:00:00 TS 28.0713 76.8500 main 0 0 _________PO___ -1 28.1425 76.6999 TC 30 28.0000 77.0000 1 5 303
1933233N25084 1933 42 NI AS NOT_NAMED 1933-08-26 18:00:00 TS 28.2213 76.5961 main 0 0 _________OP___ -1 28.3000 76.4000 TC 30 28.1623 76.7432 1 6 306
1933233N25084 1933 42 NI AS NOT_NAMED 1933-08-26 21:00:00 TS 28.3974 76.3378 main 0 0 _________PP___ -1 28.4900 76.1377 TC 30 28.3357 76.4712 1 6 309
1933233N25084 1933 42 NI AS NOT_NAMED 1933-08-27 00:00:00 TS 28.5775 76.0923 main 0 0 _________OP___ -1 28.7000 75.9000 TC 30 28.5162 76.1885 1 5 308
1933233N25084 1933 42 NI AS NOT_NAMED 1933-08-27 03:00:00 NR 28.7000 75.9000 main 0 __________O___ -1 TC 28.7000 75.9000 1 4 306

IBTrACS Databaseについて

本データベースは、米国NOAAが公開する1842年以降の世界の熱帯低気圧のベストトラックデータアーカイブInternational Best Track Archive for Climate Stewardship (IBTrACS)を、ウェブで閲覧しやすい形式に変換したものです。

最終更新日:2021-10-27